sensor_id;sensor_type;location;lat;lon;timestamp;pressure;altitude;pressure_sealevel;temperature;humidity
16431;BME280;8325;49.284;7.238;2023-02-18T05:02:44;99559.66;;;9.83;100.00
16431;BME280;8325;49.284;7.238;2023-02-18T05:06:56;99570.81;;;9.76;100.00
16431;BME280;8325;49.284;7.238;2023-02-18T05:11:08;99574.34;;;9.84;100.00
16431;BME280;8325;49.284;7.238;2023-02-18T05:15:21;99581.81;;;9.79;100.00
16431;BME280;8325;49.284;7.238;2023-02-18T05:19:32;99566.16;;;9.79;100.00
16431;BME280;8325;49.284;7.238;2023-02-18T05:23:44;99558.44;;;9.78;100.00
16431;BME280;8325;49.284;7.238;2023-02-18T05:27:55;99572.47;;;9.77;100.00
16431;BME280;8325;49.284;7.238;2023-02-18T05:32:07;99567.50;;;9.83;100.00
16431;BME280;8325;49.284;7.238;2023-02-18T05:36:19;99573.81;;;9.81;100.00
16431;BME280;8325;49.284;7.238;2023-02-18T05:40:30;99567.91;;;9.88;100.00
16431;BME280;8325;49.284;7.238;2023-02-18T05:44:42;99556.19;;;9.93;100.00
16431;BME280;8325;49.284;7.238;2023-02-18T05:48:53;99564.44;;;9.88;100.00
16431;BME280;8325;49.284;7.238;2023-02-18T05:53:05;99568.25;;;9.94;100.00
16431;BME280;8325;49.284;7.238;2023-02-18T05:57:17;99569.63;;;9.98;100.00
16431;BME280;8325;49.284;7.238;2023-02-18T06:01:28;99566.88;;;9.99;100.00
16431;BME280;8325;49.284;7.238;2023-02-18T06:05:40;99564.41;;;9.98;100.00
16431;BME280;8325;49.284;7.238;2023-02-18T06:09:51;99582.75;;;10.06;100.00
16431;BME280;8325;49.284;7.238;2023-02-18T06:14:04;99575.91;;;10.05;100.00
16431;BME280;8325;49.284;7.238;2023-02-18T06:18:16;99573.97;;;10.07;100.00
16431;BME280;8325;49.284;7.238;2023-02-18T06:22:28;99565.47;;;10.05;100.00
16431;BME280;8325;49.284;7.238;2023-02-18T06:26:40;99586.06;;;10.08;100.00
16431;BME280;8325;49.284;7.238;2023-02-18T06:30:52;99572.31;;;10.06;100.00
16431;BME280;8325;49.284;7.238;2023-02-18T06:35:03;99579.97;;;10.17;100.00
16431;BME280;8325;49.284;7.238;2023-02-18T06:39:15;99576.66;;;10.15;100.00
16431;BME280;8325;49.284;7.238;2023-02-18T06:43:27;99567.03;;;10.15;100.00
16431;BME280;8325;49.284;7.238;2023-02-18T06:47:39;99563.31;;;10.18;100.00
16431;BME280;8325;49.284;7.238;2023-02-18T06:51:50;99545.03;;;10.18;100.00
16431;BME280;8325;49.284;7.238;2023-02-18T06:56:02;99561.09;;;10.23;100.00
16431;BME280;8325;49.284;7.238;2023-02-18T07:00:13;99548.34;;;10.20;100.00
16431;BME280;8325;49.284;7.238;2023-02-18T07:04:25;99540.63;;;10.19;100.00
16431;BME280;8325;49.284;7.238;2023-02-18T07:08:37;99547.38;;;10.21;100.00
16431;BME280;8325;49.284;7.238;2023-02-18T07:12:49;99553.00;;;10.26;100.00
16431;BME280;8325;49.284;7.238;2023-02-18T07:17:01;99553.00;;;10.26;100.00
16431;BME280;8325;49.284;7.238;2023-02-18T07:21:13;99547.50;;;10.29;100.00
16431;BME280;8325;49.284;7.238;2023-02-18T07:25:24;99543.47;;;10.35;100.00
16431;BME280;8325;49.284;7.238;2023-02-18T07:29:36;99534.81;;;10.34;100.00
16431;BME280;8325;49.284;7.238;2023-02-18T07:33:47;99545.78;;;10.38;100.00
16431;BME280;8325;49.284;7.238;2023-02-18T07:37:59;99552.22;;;10.44;100.00
16431;BME280;8325;49.284;7.238;2023-02-18T07:42:13;99561.00;;;10.43;100.00
16431;BME280;8325;49.284;7.238;2023-02-18T07:46:25;99565.31;;;10.34;100.00
16431;BME280;8325;49.284;7.238;2023-02-18T07:50:41;99562.69;;;10.34;100.00
16431;BME280;8325;49.284;7.238;2023-02-18T07:54:53;99564.28;;;10.27;100.00
16431;BME280;8325;49.284;7.238;2023-02-18T07:59:04;99562.88;;;10.32;100.00
16431;BME280;8325;49.284;7.238;2023-02-18T08:03:17;99567.81;;;10.26;100.00
16431;BME280;8325;49.284;7.238;2023-02-18T08:07:29;99585.16;;;10.27;100.00
16431;BME280;8325;49.284;7.238;2023-02-18T08:11:40;99571.28;;;10.26;100.00
16431;BME280;8325;49.284;7.238;2023-02-18T08:15:54;99572.63;;;10.30;100.00
16431;BME280;8325;49.284;7.238;2023-02-18T08:20:07;99567.63;;;10.37;100.00
16431;BME280;8325;49.284;7.238;2023-02-18T08:24:19;99564.00;;;10.48;100.00
16431;BME280;8325;49.284;7.238;2023-02-18T08:28:30;99568.09;;;10.50;100.00
16431;BME280;8325;49.284;7.238;2023-02-18T08:32:42;99561.44;;;10.56;100.00
16431;BME280;8325;49.284;7.238;2023-02-18T08:36:53;99553.59;;;10.56;100.00
16431;BME280;8325;49.284;7.238;2023-02-18T08:41:07;99559.81;;;10.55;100.00
16431;BME280;8325;49.284;7.238;2023-02-18T08:45:19;99552.13;;;10.53;100.00
16431;BME280;8325;49.284;7.238;2023-02-18T08:49:30;99556.97;;;10.48;100.00
16431;BME280;8325;49.284;7.238;2023-02-18T08:53:42;99553.69;;;10.46;100.00
16431;BME280;8325;49.284;7.238;2023-02-18T08:57:54;99551.22;;;10.45;100.00
16431;BME280;8325;49.284;7.238;2023-02-18T09:02:06;99555.28;;;10.57;100.00
16431;BME280;8325;49.284;7.238;2023-02-18T09:06:17;99556.00;;;10.67;100.00
16431;BME280;8325;49.284;7.238;2023-02-18T09:10:29;99558.84;;;10.74;100.00
16431;BME280;8325;49.284;7.238;2023-02-18T09:14:40;99569.75;;;10.69;100.00
16431;BME280;8325;49.284;7.238;2023-02-18T09:18:52;99567.72;;;10.63;100.00
16431;BME280;8325;49.284;7.238;2023-02-18T09:23:04;99568.94;;;10.69;100.00
16431;BME280;8325;49.284;7.238;2023-02-18T09:27:15;99574.50;;;10.74;100.00
16431;BME280;8325;49.284;7.238;2023-02-18T09:31:27;99576.69;;;10.78;100.00
16431;BME280;8325;49.284;7.238;2023-02-18T09:35:40;99579.59;;;10.75;100.00
16431;BME280;8325;49.284;7.238;2023-02-18T09:39:52;99590.41;;;10.80;100.00
16431;BME280;8325;49.284;7.238;2023-02-18T09:44:18;99581.25;;;10.76;99.46
16431;BME280;8325;49.284;7.238;2023-02-18T09:48:33;99584.81;;;10.75;100.00
16431;BME280;8325;49.284;7.238;2023-02-18T09:52:45;99583.72;;;10.78;99.39
16431;BME280;8325;49.284;7.238;2023-02-18T09:56:57;99588.19;;;10.86;98.99
16431;BME280;8325;49.284;7.238;2023-02-18T10:01:28;99589.47;;;10.81;98.73
16431;BME280;8325;49.284;7.238;2023-02-18T10:06:11;99594.53;;;10.83;96.87
16431;BME280;8325;49.284;7.238;2023-02-18T10:14:49;99611.41;;;10.89;94.77
16431;BME280;8325;49.284;7.238;2023-02-18T10:19:21;99601.25;;;10.86;94.42
16431;BME280;8325;49.284;7.238;2023-02-18T10:23:37;99607.59;;;10.83;94.77
16431;BME280;8325;49.284;7.238;2023-02-18T10:27:52;99615.28;;;10.85;94.10
16431;BME280;8325;49.284;7.238;2023-02-18T10:32:20;99610.41;;;10.90;93.74
16431;BME280;8325;49.284;7.238;2023-02-18T10:36:56;99609.16;;;10.94;91.79
16431;BME280;8325;49.284;7.238;2023-02-18T10:41:32;99612.44;;;10.96;92.52
16431;BME280;8325;49.284;7.238;2023-02-18T10:50:27;99612.72;;;10.93;90.65
16431;BME280;8325;49.284;7.238;2023-02-18T10:55:06;99622.66;;;10.89;91.01
16431;BME280;8325;49.284;7.238;2023-02-18T10:59:25;99618.22;;;10.81;89.80
16431;BME280;8325;49.284;7.238;2023-02-18T11:03:49;99628.19;;;10.86;90.23
16431;BME280;8325;49.284;7.238;2023-02-18T11:08:07;99622.38;;;10.92;89.14
16431;BME280;8325;49.284;7.238;2023-02-18T11:12:34;99622.59;;;10.99;88.12
16431;BME280;8325;49.284;7.238;2023-02-18T11:16:52;99621.63;;;11.00;88.46
16431;BME280;8325;49.284;7.238;2023-02-18T11:25:34;99615.50;;;11.09;87.92
16431;BME280;8325;49.284;7.238;2023-02-18T11:29:51;99627.09;;;11.06;86.06
16431;BME280;8325;49.284;7.238;2023-02-18T11:34:04;99611.53;;;11.05;86.14
16431;BME280;8325;49.284;7.238;2023-02-18T11:38:27;99619.38;;;11.05;86.55
16431;BME280;8325;49.284;7.238;2023-02-18T11:42:39;99595.84;;;11.05;86.17
16431;BME280;8325;49.284;7.238;2023-02-18T11:51:22;99600.84;;;11.16;84.99
16431;BME280;8325;49.284;7.238;2023-02-18T11:55:34;99586.03;;;11.25;84.44
16431;BME280;8325;49.284;7.238;2023-02-18T11:59:45;99582.66;;;11.33;84.15
16431;BME280;8325;49.284;7.238;2023-02-18T12:04:23;99580.09;;;11.41;83.10
16431;BME280;8325;49.284;7.238;2023-02-18T12:08:47;99560.91;;;11.58;83.14
16431;BME280;8325;49.284;7.238;2023-02-18T12:13:05;99557.41;;;11.84;83.29
16431;BME280;8325;49.284;7.238;2023-02-18T12:17:43;99549.47;;;11.93;81.25
16431;BME280;8325;49.284;7.238;2023-02-18T12:22:07;99546.41;;;12.06;81.55
16431;BME280;8325;49.284;7.238;2023-02-18T12:26:27;99555.28;;;12.13;80.95
16431;BME280;8325;49.284;7.238;2023-02-18T12:58:02;99523.47;;;11.58;76.97
16431;BME280;8325;49.284;7.238;2023-02-18T13:07:36;99525.41;;;11.29;77.37
16431;BME280;8325;49.284;7.238;2023-02-18T13:12:18;99520.19;;;11.29;77.63
16431;BME280;8325;49.284;7.238;2023-02-18T13:16:31;99509.47;;;11.41;78.44
16431;BME280;8325;49.284;7.238;2023-02-18T13:20:49;99500.91;;;11.31;78.56
16431;BME280;8325;49.284;7.238;2023-02-18T13:25:01;99500.91;;;11.31;79.07
16431;BME280;8325;49.284;7.238;2023-02-18T13:29:25;99497.63;;;11.28;78.99
16431;BME280;8325;49.284;7.238;2023-02-18T13:33:59;99501.97;;;11.20;78.95
16431;BME280;8325;49.284;7.238;2023-02-18T13:42:51;99482.50;;;11.14;79.83
16431;BME280;8325;49.284;7.238;2023-02-18T13:47:03;99475.28;;;11.08;80.17
16431;BME280;8325;49.284;7.238;2023-02-18T13:51:26;99480.66;;;11.06;80.12
16431;BME280;8325;49.284;7.238;2023-02-18T14:00:16;99484.56;;;11.02;81.07
16431;BME280;8325;49.284;7.238;2023-02-18T14:22:32;99471.03;;;10.81;81.88
16431;BME280;8325;49.284;7.238;2023-02-18T14:26:46;99474.47;;;10.81;82.69
16431;BME280;8325;49.284;7.238;2023-02-18T14:31:20;99476.91;;;10.83;82.64
16431;BME280;8325;49.284;7.238;2023-02-18T14:36:08;99481.31;;;10.82;82.36
16431;BME280;8325;49.284;7.238;2023-02-18T14:49:43;99462.03;;;10.83;81.80
16431;BME280;8325;49.284;7.238;2023-02-18T14:54:02;99452.19;;;10.77;82.23
16431;BME280;8325;49.284;7.238;2023-02-18T15:02:35;99462.44;;;10.71;82.89
16431;BME280;8325;49.284;7.238;2023-02-18T15:06:58;99459.94;;;10.61;83.76
16431;BME280;8325;49.284;7.238;2023-02-18T15:11:10;99474.28;;;10.57;84.29
16431;BME280;8325;49.284;7.238;2023-02-18T15:15:22;99480.09;;;10.51;85.34
16431;BME280;8325;49.284;7.238;2023-02-18T15:19:43;99476.16;;;10.47;86.54
16431;BME280;8325;49.284;7.238;2023-02-18T15:24:26;99476.09;;;10.39;87.73
16431;BME280;8325;49.284;7.238;2023-02-18T15:29:01;99478.00;;;10.36;88.77
16431;BME280;8325;49.284;7.238;2023-02-18T15:33:14;99464.75;;;10.30;90.10
16431;BME280;8325;49.284;7.238;2023-02-18T15:37:29;99478.66;;;10.21;91.01
16431;BME280;8325;49.284;7.238;2023-02-18T15:41:41;99478.28;;;10.15;92.86
16431;BME280;8325;49.284;7.238;2023-02-18T15:45:55;99476.94;;;10.11;94.50
16431;BME280;8325;49.284;7.238;2023-02-18T15:50:35;99471.78;;;10.02;95.15
16431;BME280;8325;49.284;7.238;2023-02-18T15:54:48;99468.28;;;9.93;94.84
16431;BME280;8325;49.284;7.238;2023-02-18T15:59:19;99460.06;;;9.88;95.25
16431;BME280;8325;49.284;7.238;2023-02-18T16:03:51;99448.81;;;9.87;93.93
16431;BME280;8325;49.284;7.238;2023-02-18T16:08:16;99441.94;;;9.86;93.33
16431;BME280;8325;49.284;7.238;2023-02-18T16:12:30;99440.97;;;9.87;91.95
16431;BME280;8325;49.284;7.238;2023-02-18T16:16:42;99447.84;;;9.88;91.33
16431;BME280;8325;49.284;7.238;2023-02-18T16:21:03;99452.91;;;9.90;90.60
16431;BME280;8325;49.284;7.238;2023-02-18T16:25:21;99447.91;;;9.97;90.30
16431;BME280;8325;49.284;7.238;2023-02-18T16:29:40;99453.13;;;9.97;90.01
16431;BME280;8325;49.284;7.238;2023-02-18T16:33:52;99451.88;;;10.01;89.25
16431;BME280;8325;49.284;7.238;2023-02-18T16:38:04;99460.00;;;9.98;89.34
16431;BME280;8325;49.284;7.238;2023-02-18T16:42:15;99472.38;;;9.96;89.04
16431;BME280;8325;49.284;7.238;2023-02-18T16:46:27;99473.06;;;9.98;89.74
16431;BME280;8325;49.284;7.238;2023-02-18T16:50:40;99481.47;;;9.91;90.78
16431;BME280;8325;49.284;7.238;2023-02-18T16:54:51;99481.22;;;9.85;91.57
16431;BME280;8325;49.284;7.238;2023-02-18T16:59:05;99475.47;;;9.81;91.35
16431;BME280;8325;49.284;7.238;2023-02-18T17:03:17;99473.44;;;9.75;91.70
16431;BME280;8325;49.284;7.238;2023-02-18T17:07:29;99471.13;;;9.72;92.89
16431;BME280;8325;49.284;7.238;2023-02-18T17:11:44;99470.09;;;9.65;93.39
16431;BME280;8325;49.284;7.238;2023-02-18T17:15:57;99473.66;;;9.64;93.88
16431;BME280;8325;49.284;7.238;2023-02-18T17:20:09;99474.91;;;9.60;93.16
16431;BME280;8325;49.284;7.238;2023-02-18T17:24:24;99483.53;;;9.60;93.38
16431;BME280;8325;49.284;7.238;2023-02-18T17:28:36;99484.41;;;9.61;92.75
16431;BME280;8325;49.284;7.238;2023-02-18T17:32:48;99492.88;;;9.63;92.20
16431;BME280;8325;49.284;7.238;2023-02-18T17:36:59;99490.94;;;9.65;91.42
16431;BME280;8325;49.284;7.238;2023-02-18T17:41:14;99493.97;;;9.70;90.74
16431;BME280;8325;49.284;7.238;2023-02-18T17:45:30;99496.00;;;9.66;90.65
16431;BME280;8325;49.284;7.238;2023-02-18T17:49:42;99499.03;;;9.72;90.46
16431;BME280;8325;49.284;7.238;2023-02-18T17:53:54;99504.69;;;9.67;90.91
16431;BME280;8325;49.284;7.238;2023-02-18T17:58:05;99498.88;;;9.73;90.10
16431;BME280;8325;49.284;7.238;2023-02-18T18:02:26;99506.56;;;9.75;89.76
16431;BME280;8325;49.284;7.238;2023-02-18T18:06:38;99487.75;;;9.71;89.06
16431;BME280;8325;49.284;7.238;2023-02-18T18:10:52;99497.81;;;9.66;89.04
16431;BME280;8325;49.284;7.238;2023-02-18T18:19:33;99496.16;;;9.65;88.96
16431;BME280;8325;49.284;7.238;2023-02-18T18:23:45;99498.19;;;9.71;88.37
16431;BME280;8325;49.284;7.238;2023-02-18T18:27:56;99502.59;;;9.71;87.65
16431;BME280;8325;49.284;7.238;2023-02-18T18:32:08;99494.53;;;9.64;88.07
16431;BME280;8325;49.284;7.238;2023-02-18T18:36:20;99501.69;;;9.62;87.98
16431;BME280;8325;49.284;7.238;2023-02-18T18:40:34;99507.72;;;9.62;87.87
16431;BME280;8325;49.284;7.238;2023-02-18T18:44:46;99497.00;;;9.65;87.82
16431;BME280;8325;49.284;7.238;2023-02-18T18:48:57;99514.84;;;9.60;87.59
16431;BME280;8325;49.284;7.238;2023-02-18T18:53:22;99510.91;;;9.56;87.21
16431;BME280;8325;49.284;7.238;2023-02-18T18:57:35;99499.66;;;9.56;88.00
16431;BME280;8325;49.284;7.238;2023-02-18T19:01:46;99505.69;;;9.56;88.15
16431;BME280;8325;49.284;7.238;2023-02-18T19:05:58;99504.69;;;9.57;87.54
16431;BME280;8325;49.284;7.238;2023-02-18T19:10:09;99504.47;;;9.51;87.55
16431;BME280;8325;49.284;7.238;2023-02-18T19:14:22;99499.66;;;9.56;87.53
16431;BME280;8325;49.284;7.238;2023-02-18T19:18:34;99495.97;;;9.49;87.93
16431;BME280;8325;49.284;7.238;2023-02-18T19:22:46;99504.47;;;9.51;88.25
16431;BME280;8325;49.284;7.238;2023-02-18T19:26:58;99506.53;;;9.47;88.43
16431;BME280;8325;49.284;7.238;2023-02-18T19:31:09;99505.19;;;9.43;89.05
16431;BME280;8325;49.284;7.238;2023-02-18T19:35:23;99501.47;;;9.45;88.58
16431;BME280;8325;49.284;7.238;2023-02-18T19:39:35;99505.03;;;9.44;88.60
16431;BME280;8325;49.284;7.238;2023-02-18T19:43:47;99493.38;;;9.49;88.25
16431;BME280;8325;49.284;7.238;2023-02-18T19:47:59;99492.53;;;9.48;88.28
16431;BME280;8325;49.284;7.238;2023-02-18T19:52:11;99494.31;;;9.48;88.13
16431;BME280;8325;49.284;7.238;2023-02-18T19:56:22;99501.47;;;9.45;88.62
16431;BME280;8325;49.284;7.238;2023-02-18T20:00:35;99491.63;;;9.39;88.93
16431;BME280;8325;49.284;7.238;2023-02-18T20:04:47;99485.56;;;9.39;89.04
16431;BME280;8325;49.284;7.238;2023-02-18T20:08:58;99496.16;;;9.37;89.80
16431;BME280;8325;49.284;7.238;2023-02-18T20:13:10;99489.97;;;9.38;89.56
16431;BME280;8325;49.284;7.238;2023-02-18T20:17:22;99492.84;;;9.35;89.95
16431;BME280;8325;49.284;7.238;2023-02-18T20:21:33;99500.69;;;9.35;89.97
16431;BME280;8325;49.284;7.238;2023-02-18T20:25:45;99508.22;;;9.38;89.94
16431;BME280;8325;49.284;7.238;2023-02-18T20:29:59;99501.94;;;9.31;90.34
16431;BME280;8325;49.284;7.238;2023-02-18T20:34:11;99503.00;;;9.38;90.28
16431;BME280;8325;49.284;7.238;2023-02-18T20:38:23;99502.34;;;9.27;90.81
16431;BME280;8325;49.284;7.238;2023-02-18T20:42:34;99495.47;;;9.35;90.36
16431;BME280;8325;49.284;7.238;2023-02-18T20:46:48;99490.69;;;9.31;90.81
16431;BME280;8325;49.284;7.238;2023-02-18T20:51:08;99491.06;;;9.36;90.52
16431;BME280;8325;49.284;7.238;2023-02-18T20:55:20;99495.22;;;9.29;91.12
16431;BME280;8325;49.284;7.238;2023-02-18T20:59:32;99487.56;;;9.27;91.18
16431;BME280;8325;49.284;7.238;2023-02-18T21:03:45;99485.59;;;9.29;91.30
16431;BME280;8325;49.284;7.238;2023-02-18T21:25:44;99479.38;;;9.12;92.44
16431;BME280;8325;49.284;7.238;2023-02-18T21:45:06;99455.22;;;9.10;92.34
16431;BME280;8325;49.284;7.238;2023-02-18T21:49:17;99440.69;;;9.08;92.27
16431;BME280;8325;49.284;7.238;2023-02-18T21:53:29;99447.97;;;9.04;92.39
16431;BME280;8325;49.284;7.238;2023-02-18T21:57:40;99446.06;;;9.06;92.96
16431;BME280;8325;49.284;7.238;2023-02-18T22:01:52;99441.81;;;9.05;93.11
16431;BME280;8325;49.284;7.238;2023-02-18T22:06:07;99440.97;;;9.05;92.39
16431;BME280;8325;49.284;7.238;2023-02-18T22:10:19;99437.00;;;9.01;93.53
16431;BME280;8325;49.284;7.238;2023-02-18T22:14:31;99435.66;;;8.96;94.51
16431;BME280;8325;49.284;7.238;2023-02-18T22:18:43;99429.75;;;8.94;95.23
16431;BME280;8325;49.284;7.238;2023-02-18T22:22:54;99418.25;;;8.97;95.46
16431;BME280;8325;49.284;7.238;2023-02-18T22:27:06;99415.91;;;8.94;95.79
